createdAt,value
2023-04-16T00:01:26.666Z,49.23
2023-04-16T00:03:53.457Z,49.38
2023-04-16T00:06:20.167Z,49.46
2023-04-16T00:08:46.695Z,49.56
2023-04-16T00:11:13.250Z,50.16
2023-04-16T00:13:39.730Z,49.93
2023-04-16T00:16:06.690Z,49.65
2023-04-16T00:18:33.234Z,49.62
2023-04-16T00:20:59.770Z,49.59
2023-04-16T00:23:26.262Z,50.12
2023-04-16T00:25:53.830Z,50.45
2023-04-16T00:28:20.453Z,49.90
2023-04-16T00:30:47.118Z,49.73
2023-04-16T00:33:13.681Z,49.51
2023-04-16T00:35:40.416Z,49.82
2023-04-16T00:38:06.991Z,49.67
2023-04-16T00:40:33.482Z,49.87
2023-04-16T00:43:00.033Z,49.75
2023-04-16T00:45:26.530Z,49.54
2023-04-16T00:47:53.068Z,49.59
2023-04-16T00:50:19.818Z,49.76
2023-04-16T00:52:49.169Z,49.68
2023-04-16T00:55:17.702Z,49.86
2023-04-16T00:57:44.693Z,49.88
2023-04-16T01:00:12.131Z,49.88
2023-04-16T01:02:38.838Z,49.78
2023-04-16T01:05:05.739Z,49.98
2023-04-16T01:07:32.291Z,49.86
2023-04-16T01:09:59.366Z,49.83
2023-04-16T01:12:25.846Z,49.70
2023-04-16T01:14:52.410Z,50.00
2023-04-16T01:17:18.891Z,49.83
2023-04-16T01:19:45.449Z,49.87
2023-04-16T01:22:12.004Z,50.06
2023-04-16T01:24:38.570Z,49.34
2023-04-16T01:27:05.178Z,49.83
2023-04-16T01:29:31.685Z,49.98
2023-04-16T01:31:58.285Z,49.63
2023-04-16T01:34:25.231Z,49.57
2023-04-16T01:36:51.942Z,49.76
2023-04-16T01:39:19.583Z,50.13
2023-04-16T01:41:46.587Z,49.87
2023-04-16T01:44:13.102Z,49.88
2023-04-16T01:46:39.673Z,50.03
2023-04-16T01:49:07.370Z,49.98
2023-04-16T01:51:34.021Z,49.95
2023-04-16T01:54:01.151Z,49.92
2023-04-16T01:56:27.692Z,49.68
2023-04-16T01:58:54.354Z,50.30
2023-04-16T02:01:21.197Z,49.77
2023-04-16T02:03:47.865Z,49.73
2023-04-16T02:06:15.042Z,49.50
2023-04-16T02:08:41.852Z,49.65
2023-04-16T02:11:08.437Z,49.88
2023-04-16T02:13:35.107Z,49.97
2023-04-16T02:16:02.511Z,49.76
2023-04-16T02:18:29.151Z,49.85
2023-04-16T02:20:57.976Z,49.97
2023-04-16T02:23:24.454Z,49.90
2023-04-16T02:25:50.960Z,49.98
2023-04-16T02:28:17.496Z,49.91
2023-04-16T02:30:44.050Z,50.19
2023-04-16T02:33:11.384Z,49.95
2023-04-16T02:35:38.616Z,50.07
2023-04-16T02:38:05.499Z,49.92
2023-04-16T02:40:32.057Z,50.06
2023-04-16T02:42:58.529Z,50.19
2023-04-16T02:45:25.125Z,49.95
2023-04-16T02:47:51.706Z,49.91
2023-04-16T02:50:18.363Z,49.89
2023-04-16T02:52:45.003Z,50.01
2023-04-16T02:55:11.728Z,49.83
2023-04-16T02:57:38.285Z,49.96
2023-04-16T03:00:05.225Z,50.00
2023-04-16T03:02:31.833Z,49.69
2023-04-16T03:04:58.489Z,50.11
2023-04-16T03:07:25.170Z,49.71
2023-04-16T03:09:51.826Z,50.03
2023-04-16T03:12:18.384Z,50.53
2023-04-16T03:14:44.907Z,49.72
2023-04-16T03:17:11.552Z,49.58
2023-04-16T03:19:38.032Z,49.68
2023-04-16T03:22:04.678Z,49.91
2023-04-16T03:24:31.245Z,50.05
2023-04-16T03:26:58.444Z,50.17
2023-04-16T03:29:26.808Z,50.00
2023-04-16T03:31:53.423Z,50.14
2023-04-16T03:34:19.936Z,49.82
2023-04-16T03:36:46.487Z,49.83
2023-04-16T03:39:13.052Z,50.07
2023-04-16T03:41:39.560Z,49.97
2023-04-16T03:44:06.255Z,50.29
2023-04-16T03:46:32.837Z,50.01
2023-04-16T03:48:59.404Z,49.93
2023-04-16T03:51:26.520Z,49.59
2023-04-16T03:53:53.156Z,50.03
2023-04-16T03:56:19.707Z,50.20
2023-04-16T03:58:46.209Z,50.30
2023-04-16T04:01:12.737Z,49.98
2023-04-16T04:03:39.536Z,49.67
2023-04-16T04:06:09.557Z,50.05
2023-04-16T04:08:36.496Z,50.66
2023-04-16T04:11:03.021Z,50.07
2023-04-16T04:13:29.595Z,49.72
2023-04-16T04:15:56.214Z,50.10
2023-04-16T04:18:22.798Z,49.83
2023-04-16T04:20:49.373Z,50.02
2023-04-16T04:23:16.194Z,49.84
2023-04-16T04:25:42.694Z,49.72
2023-04-16T04:28:09.233Z,50.08
2023-04-16T04:30:36.060Z,50.14
2023-04-16T04:33:02.627Z,49.85
2023-04-16T04:35:29.137Z,50.13
2023-04-16T04:37:55.724Z,50.06
2023-04-16T04:40:22.354Z,50.29
2023-04-16T04:42:49.004Z,49.63
2023-04-16T04:45:15.597Z,50.09
2023-04-16T04:47:42.223Z,49.89
2023-04-16T04:50:09.262Z,50.08
2023-04-16T04:52:35.927Z,50.13
2023-04-16T04:55:02.441Z,49.97
2023-04-16T04:57:28.977Z,49.96
2023-04-16T04:59:55.537Z,49.81
2023-04-16T05:02:22.096Z,50.23
2023-04-16T05:04:48.749Z,50.38
2023-04-16T05:07:15.308Z,49.72
2023-04-16T05:09:41.831Z,50.04
2023-04-16T05:12:08.448Z,49.94
2023-04-16T05:14:36.313Z,50.11
2023-04-16T05:17:02.950Z,49.99
2023-04-16T05:19:29.621Z,50.48
2023-04-16T05:21:56.258Z,50.23
2023-04-16T05:24:22.930Z,50.31
2023-04-16T05:26:49.465Z,50.01
2023-04-16T05:29:15.991Z,49.57
2023-04-16T05:31:42.545Z,50.09
2023-04-16T05:34:09.072Z,50.26
2023-04-16T05:36:35.769Z,49.62
2023-04-16T05:39:02.376Z,49.85
2023-04-16T05:41:28.995Z,49.90
2023-04-16T05:43:55.661Z,49.93
2023-04-16T05:46:22.272Z,50.01
2023-04-16T05:48:48.787Z,49.81
2023-04-16T05:51:15.351Z,49.76
2023-04-16T05:53:42.026Z,49.82
2023-04-16T05:56:08.640Z,50.03
2023-04-16T05:58:35.226Z,49.66
2023-04-16T06:01:01.823Z,50.31
2023-04-16T06:03:28.484Z,49.60
2023-04-16T06:05:55.443Z,49.90
2023-04-16T06:08:22.171Z,49.83
2023-04-16T06:10:48.699Z,50.01
2023-04-16T06:13:15.199Z,50.07
2023-04-16T06:15:41.883Z,49.78
2023-04-16T06:18:08.495Z,49.85
2023-04-16T06:20:35.067Z,49.84
2023-04-16T06:23:01.611Z,50.28
2023-04-16T06:25:28.189Z,50.01
2023-04-16T06:27:54.686Z,49.64
2023-04-16T06:30:21.212Z,49.85
2023-04-16T06:32:48.022Z,49.83
2023-04-16T06:35:14.721Z,49.68
2023-04-16T06:37:41.551Z,49.85
2023-04-16T06:40:08.634Z,49.84
2023-04-16T06:42:35.339Z,49.86
2023-04-16T06:45:01.896Z,50.13
2023-04-16T06:47:28.441Z,49.74
2023-04-16T06:49:55.059Z,49.90
2023-04-16T06:52:21.565Z,49.69
2023-04-16T06:54:48.343Z,49.17
2023-04-16T06:57:14.860Z,48.49
2023-04-16T06:59:41.448Z,48.73
2023-04-16T07:02:09.992Z,48.37
2023-04-16T07:04:36.703Z,48.39
2023-04-16T07:07:03.220Z,48.01
2023-04-16T07:09:29.700Z,48.07
2023-04-16T07:11:56.290Z,48.45
2023-04-16T07:14:22.897Z,47.85
2023-04-16T07:16:49.543Z,48.57
2023-04-16T07:19:16.135Z,48.53
2023-04-16T07:21:43.737Z,48.49
2023-04-16T07:24:11.818Z,48.22
2023-04-16T07:26:38.382Z,48.00
2023-04-16T07:29:04.949Z,48.10
2023-04-16T07:31:31.509Z,48.03
2023-04-16T07:33:58.478Z,48.56
2023-04-16T07:36:25.021Z,48.27
2023-04-16T07:38:51.566Z,48.54
2023-04-16T07:41:18.047Z,48.73
2023-04-16T07:43:44.561Z,48.46
2023-04-16T07:46:11.355Z,49.13
2023-04-16T07:48:37.890Z,49.33
2023-04-16T07:51:04.480Z,48.80
2023-04-16T07:53:31.010Z,49.11
2023-04-16T07:55:57.557Z,49.30
2023-04-16T07:58:24.071Z,49.34
2023-04-16T08:00:51.346Z,49.22
2023-04-16T08:03:18.505Z,49.00
2023-04-16T08:05:45.280Z,49.16
2023-04-16T08:08:11.857Z,49.71
2023-04-16T08:10:39.086Z,49.09
2023-04-16T08:13:05.722Z,48.76
2023-04-16T08:15:32.421Z,49.16
2023-04-16T08:17:59.701Z,48.71
2023-04-16T08:20:26.302Z,49.12
2023-04-16T08:22:53.808Z,49.11
2023-04-16T08:25:20.818Z,49.26
2023-04-16T08:27:47.430Z,49.23
2023-04-16T08:30:15.159Z,49.13
2023-04-16T08:32:41.754Z,49.36
2023-04-16T08:35:08.898Z,49.22
2023-04-16T08:37:35.435Z,49.09
2023-04-16T08:40:02.560Z,49.26
2023-04-16T08:42:45.049Z,49.29
2023-04-16T08:45:16.140Z,49.25
2023-04-16T08:47:46.783Z,49.38
2023-04-16T08:50:17.094Z,49.29
2023-04-16T08:52:47.301Z,49.44
2023-04-16T08:55:14.534Z,49.42
2023-04-16T08:57:47.515Z,49.37
2023-04-16T09:00:14.599Z,49.46
2023-04-16T09:02:41.224Z,49.39
2023-04-16T09:05:08.378Z,49.41
2023-04-16T09:07:35.414Z,49.35
2023-04-16T09:10:02.071Z,49.60
2023-04-16T09:12:28.669Z,49.78
2023-04-16T09:14:55.227Z,49.42
2023-04-16T09:17:21.854Z,49.52
2023-04-16T09:19:48.498Z,49.62
2023-04-16T09:22:15.065Z,49.53
2023-04-16T09:24:41.983Z,49.13
2023-04-16T09:27:08.860Z,49.70
2023-04-16T09:29:36.492Z,49.65
2023-04-16T09:32:10.090Z,49.56
2023-04-16T09:34:54.600Z,49.70
2023-04-16T09:37:21.134Z,50.05
2023-04-16T09:39:56.574Z,49.66
2023-04-16T09:42:30.973Z,49.71
2023-04-16T09:45:00.320Z,49.61
2023-04-16T09:47:41.724Z,49.69
2023-04-16T09:50:11.272Z,49.61
2023-04-16T09:52:39.057Z,49.58
2023-04-16T09:55:06.155Z,49.62
2023-04-16T09:57:32.708Z,49.37
2023-04-16T10:00:03.590Z,49.69
2023-04-16T10:02:30.611Z,49.63
2023-04-16T10:04:57.852Z,49.63
2023-04-16T10:07:28.088Z,49.65
2023-04-16T10:09:55.824Z,50.07
2023-04-16T10:12:22.317Z,49.71
2023-04-16T10:14:50.287Z,49.50
2023-04-16T10:17:17.306Z,49.68
2023-04-16T10:19:43.812Z,49.71
2023-04-16T10:22:10.350Z,49.96
2023-04-16T10:24:36.933Z,49.95
2023-04-16T10:27:03.596Z,49.79
2023-04-16T10:29:30.775Z,49.89
2023-04-16T10:31:57.383Z,49.87
2023-04-16T10:34:24.414Z,49.71
2023-04-16T10:36:52.935Z,49.84
2023-04-16T10:39:21.286Z,49.79
2023-04-16T10:41:47.912Z,49.58
2023-04-16T10:44:16.670Z,49.81
2023-04-16T10:46:43.950Z,49.85
2023-04-16T10:49:19.135Z,49.79
2023-04-16T10:52:03.731Z,49.76
2023-04-16T10:54:30.893Z,49.80
2023-04-16T10:56:59.202Z,49.69
2023-04-16T10:59:25.922Z,49.80
2023-04-16T11:01:54.559Z,49.97
2023-04-16T11:04:21.328Z,49.84
2023-04-16T11:07:01.023Z,49.90
2023-04-16T11:09:56.484Z,49.83
2023-04-16T11:12:27.863Z,49.80
2023-04-16T11:15:04.294Z,49.81
2023-04-16T11:17:33.034Z,49.86
2023-04-16T11:19:59.638Z,50.17
2023-04-16T11:22:26.296Z,49.98
2023-04-16T11:24:56.492Z,49.92
2023-04-16T11:27:26.371Z,50.03
2023-04-16T11:30:06.380Z,50.02
2023-04-16T11:32:33.905Z,49.76
2023-04-16T11:35:03.771Z,49.91
2023-04-16T11:37:36.990Z,49.88
2023-04-16T11:40:07.243Z,49.93
2023-04-16T11:42:37.134Z,49.93
2023-04-16T11:45:04.118Z,49.91
2023-04-16T11:47:31.447Z,49.87
2023-04-16T11:49:58.522Z,49.96
2023-04-16T11:52:27.775Z,49.85
2023-04-16T11:54:54.389Z,50.00
2023-04-16T11:57:27.831Z,49.98
2023-04-16T12:00:01.935Z,49.85
2023-04-16T12:02:42.397Z,49.87
2023-04-16T12:05:30.767Z,49.91
2023-04-16T12:07:58.160Z,49.86
2023-04-16T12:10:24.838Z,49.85
2023-04-16T12:12:51.880Z,49.85
2023-04-16T12:15:18.472Z,50.04
2023-04-16T12:17:45.049Z,49.56
2023-04-16T12:20:17.653Z,49.92
2023-04-16T12:22:48.281Z,49.86
2023-04-16T12:25:16.348Z,49.83
2023-04-16T12:27:47.263Z,49.87
2023-04-16T12:30:15.432Z,50.01
2023-04-16T12:32:42.569Z,49.83
2023-04-16T12:35:12.907Z,49.87
2023-04-16T12:37:39.528Z,49.91
2023-04-16T12:40:07.026Z,49.90
2023-04-16T12:42:37.130Z,50.00
2023-04-16T12:45:04.975Z,50.08
2023-04-16T12:47:34.522Z,49.90
2023-04-16T12:50:01.388Z,51.68
2023-04-16T12:52:28.057Z,50.49
2023-04-16T12:54:54.647Z,50.84
2023-04-16T12:57:21.230Z,50.76
2023-04-16T12:59:47.746Z,50.40
2023-04-16T13:02:14.378Z,50.60
2023-04-16T13:04:41.128Z,50.84
2023-04-16T13:07:08.024Z,50.24
2023-04-16T13:09:34.610Z,50.75
2023-04-16T13:12:01.579Z,50.41
2023-04-16T13:14:28.135Z,50.61
2023-04-16T13:16:54.695Z,50.80
2023-04-16T13:19:21.246Z,50.54
2023-04-16T13:21:47.827Z,49.94
2023-04-16T13:24:14.383Z,50.78
2023-04-16T13:26:40.907Z,50.66
2023-04-16T13:29:07.529Z,50.67
2023-04-16T13:31:34.231Z,51.79
2023-04-16T13:34:00.873Z,51.40
2023-04-16T13:36:27.825Z,51.52
2023-04-16T13:38:54.602Z,51.03
2023-04-16T13:41:21.172Z,51.17
2023-04-16T13:43:47.726Z,50.81
2023-04-16T13:46:14.299Z,51.48
2023-04-16T13:48:40.845Z,51.26
2023-04-16T13:51:08.381Z,51.12
2023-04-16T13:53:34.974Z,50.93
2023-04-16T13:56:03.657Z,51.41
2023-04-16T13:58:30.376Z,50.92
2023-04-16T14:00:56.944Z,50.94
2023-04-16T14:03:25.483Z,51.04
2023-04-16T14:05:52.153Z,51.23
2023-04-16T14:08:21.257Z,51.06
2023-04-16T14:10:48.272Z,50.96
2023-04-16T14:13:14.795Z,51.05
2023-04-16T14:15:41.319Z,50.97
2023-04-16T14:18:07.979Z,51.22
2023-04-16T14:20:34.553Z,50.79
2023-04-16T14:23:01.104Z,51.16
2023-04-16T14:25:27.738Z,50.63
2023-04-16T14:27:54.281Z,50.86
2023-04-16T14:30:20.996Z,50.82
2023-04-16T14:32:47.595Z,50.58
2023-04-16T14:35:14.154Z,50.46
2023-04-16T14:37:41.330Z,50.43
2023-04-16T14:40:08.990Z,50.74
2023-04-16T14:42:39.094Z,50.74
2023-04-16T14:45:06.700Z,50.94
2023-04-16T14:47:36.900Z,50.73
2023-04-16T14:50:03.715Z,50.80
2023-04-16T14:52:33.304Z,50.86
2023-04-16T14:54:59.849Z,50.92
2023-04-16T14:57:26.807Z,50.14
2023-04-16T14:59:53.375Z,50.66
2023-04-16T15:02:20.057Z,51.09
2023-04-16T15:04:46.646Z,50.80
2023-04-16T15:07:13.205Z,50.81
2023-04-16T15:09:39.768Z,51.02
2023-04-16T15:12:06.407Z,50.96
2023-04-16T15:14:32.954Z,51.12
2023-04-16T15:16:59.566Z,50.84
2023-04-16T15:19:26.229Z,50.99
2023-04-16T15:21:52.969Z,50.65
2023-04-16T15:24:19.477Z,50.40
2023-04-16T15:26:46.263Z,49.96
2023-04-16T15:29:12.863Z,49.77
2023-04-16T15:31:39.460Z,49.89
2023-04-16T15:34:05.965Z,50.04
2023-04-16T15:36:32.601Z,49.68
2023-04-16T15:38:59.110Z,49.61
2023-04-16T15:41:25.723Z,50.13
2023-04-16T15:43:52.305Z,50.65
2023-04-16T15:46:18.947Z,49.91
2023-04-16T15:48:45.740Z,50.15
2023-04-16T15:51:12.301Z,50.21
2023-04-16T15:53:39.016Z,50.46
2023-04-16T15:56:05.902Z,50.36
2023-04-16T15:58:32.512Z,50.30
2023-04-16T16:00:59.104Z,50.89
2023-04-16T16:03:26.338Z,50.76
2023-04-16T16:05:53.045Z,51.03
2023-04-16T16:08:19.615Z,50.92
2023-04-16T16:10:46.689Z,51.21
2023-04-16T16:13:15.961Z,50.84
2023-04-16T16:15:42.477Z,50.82
2023-04-16T16:18:09.024Z,50.95
2023-04-16T16:20:36.680Z,51.08
2023-04-16T16:23:03.428Z,50.96
2023-04-16T16:25:30.357Z,51.24
2023-04-16T16:27:56.916Z,51.01
2023-04-16T16:30:23.508Z,51.13
2023-04-16T16:32:50.762Z,51.30
2023-04-16T16:35:17.369Z,51.41
2023-04-16T16:37:44.006Z,51.38
2023-04-16T16:40:11.199Z,51.21
2023-04-16T16:42:37.827Z,51.12
2023-04-16T16:45:06.030Z,51.02
2023-04-16T16:47:33.068Z,51.06
2023-04-16T16:50:01.410Z,50.91
2023-04-16T16:52:29.379Z,51.60
2023-04-16T16:54:56.843Z,51.48
2023-04-16T16:57:26.433Z,51.57
2023-04-16T16:59:54.411Z,51.91
2023-04-16T17:02:21.110Z,52.59
2023-04-16T17:04:47.875Z,52.80
2023-04-16T17:07:14.538Z,52.55
2023-04-16T17:09:41.281Z,52.72
2023-04-16T17:12:07.993Z,52.36
2023-04-16T17:14:35.281Z,51.99
2023-04-16T17:17:01.988Z,52.34
2023-04-16T17:19:28.652Z,51.93
2023-04-16T17:21:55.314Z,51.74
2023-04-16T17:24:22.036Z,52.07
2023-04-16T17:26:48.564Z,51.78
2023-04-16T17:29:15.385Z,51.84
2023-04-16T17:31:41.884Z,51.81
2023-04-16T17:34:08.593Z,52.19
2023-04-16T17:36:35.369Z,51.96
2023-04-16T17:39:02.338Z,51.89
2023-04-16T17:41:28.882Z,51.72
2023-04-16T17:43:55.439Z,52.02
2023-04-16T17:46:21.997Z,51.72
2023-04-16T17:48:48.935Z,51.75
2023-04-16T17:51:16.570Z,51.64
2023-04-16T17:53:43.585Z,51.64
2023-04-16T17:56:10.850Z,52.05
2023-04-16T17:58:37.410Z,51.94
2023-04-16T18:01:05.472Z,52.05
2023-04-16T18:03:32.442Z,52.07
2023-04-16T18:05:59.310Z,52.14
2023-04-16T18:08:26.198Z,52.04
2023-04-16T18:10:52.801Z,52.26
2023-04-16T18:13:19.333Z,52.35
2023-04-16T18:15:46.122Z,52.03
2023-04-16T18:18:12.797Z,52.04
2023-04-16T18:20:39.279Z,51.65
2023-04-16T18:23:05.923Z,52.34
2023-04-16T18:25:34.918Z,51.88
2023-04-16T18:28:03.618Z,52.20
2023-04-16T18:30:30.307Z,51.83
2023-04-16T18:33:25.471Z,52.08
2023-04-16T18:35:43.490Z,52.35
2023-04-16T18:38:10.089Z,52.01
2023-04-16T18:40:36.994Z,52.30
2023-04-16T18:43:03.977Z,52.19
2023-04-16T18:45:30.888Z,52.30
2023-04-16T18:48:02.795Z,52.26
2023-04-16T18:50:29.492Z,52.09
2023-04-16T18:52:56.099Z,52.70
2023-04-16T18:55:22.700Z,52.28
2023-04-16T18:57:49.279Z,52.26
2023-04-16T19:00:16.413Z,52.33
2023-04-16T19:02:43.042Z,52.41
2023-04-16T19:05:09.892Z,52.32
2023-04-16T19:07:37.546Z,52.33
2023-04-16T19:10:05.266Z,52.34
2023-04-16T19:12:32.215Z,52.36
2023-04-16T19:14:58.991Z,52.35
2023-04-16T19:17:25.597Z,52.06
2023-04-16T19:19:52.189Z,52.57
2023-04-16T19:22:18.670Z,52.58
2023-04-16T19:24:45.170Z,52.56
2023-04-16T19:27:11.706Z,52.47
2023-04-16T19:29:38.297Z,52.09
2023-04-16T19:32:04.945Z,52.34
2023-04-16T19:34:31.534Z,52.53
2023-04-16T19:36:58.154Z,52.52
2023-04-16T19:39:31.529Z,52.36
2023-04-16T19:41:58.151Z,52.05
2023-04-16T19:44:25.217Z,52.55
2023-04-16T19:46:51.735Z,52.52
2023-04-16T19:49:18.396Z,52.32
2023-04-16T19:51:46.146Z,52.66
2023-04-16T19:54:13.338Z,52.47
2023-04-16T19:56:39.926Z,52.58
2023-04-16T19:59:06.873Z,52.26
2023-04-16T20:01:33.526Z,52.46
2023-04-16T20:04:00.306Z,52.30
2023-04-16T20:06:27.782Z,52.53
2023-04-16T20:08:54.775Z,52.57
2023-04-16T20:11:21.347Z,52.63
2023-04-16T20:13:48.076Z,52.45
2023-04-16T20:16:14.770Z,52.57
2023-04-16T20:18:41.536Z,52.73
2023-04-16T20:21:08.853Z,52.50
2023-04-16T20:23:35.450Z,52.29
2023-04-16T20:26:02.000Z,52.46
2023-04-16T20:28:28.521Z,52.71
2023-04-16T20:30:55.086Z,52.32
2023-04-16T20:33:21.679Z,52.17
2023-04-16T20:35:49.074Z,52.16
2023-04-16T20:38:15.586Z,51.75
2023-04-16T20:40:44.659Z,52.11
2023-04-16T20:43:14.210Z,51.95
2023-04-16T20:45:41.238Z,52.46
2023-04-16T20:48:07.984Z,52.15
2023-04-16T20:50:34.571Z,52.25
2023-04-16T20:53:01.118Z,52.03
2023-04-16T20:55:27.673Z,52.04
2023-04-16T20:57:54.201Z,52.40
2023-04-16T21:00:20.905Z,52.14
2023-04-16T21:02:47.598Z,52.07
2023-04-16T21:05:14.632Z,52.02
2023-04-16T21:07:41.517Z,52.08
2023-04-16T21:10:09.293Z,52.22
2023-04-16T21:12:36.490Z,51.99
2023-04-16T21:15:04.165Z,52.08
2023-04-16T21:17:31.061Z,52.02
2023-04-16T21:19:57.725Z,52.08
2023-04-16T21:22:24.331Z,52.20
2023-04-16T21:24:50.883Z,52.22
2023-04-16T21:27:17.567Z,52.51
2023-04-16T21:29:44.058Z,52.19
2023-04-16T21:32:10.589Z,52.15
2023-04-16T21:34:37.107Z,52.30
2023-04-16T21:37:03.851Z,52.24
2023-04-16T21:39:31.131Z,51.94
2023-04-16T21:41:58.020Z,52.25
2023-04-16T21:44:24.587Z,52.31
2023-04-16T21:46:51.250Z,52.15
2023-04-16T21:49:17.789Z,52.10
2023-04-16T21:51:46.066Z,52.34
2023-04-16T21:54:12.605Z,52.26
2023-04-16T21:56:39.403Z,52.26
2023-04-16T21:59:05.956Z,52.54
2023-04-16T22:01:32.638Z,52.66
2023-04-16T22:03:59.366Z,52.50
2023-04-16T22:06:27.166Z,52.12
2023-04-16T22:08:53.696Z,52.04
2023-04-16T22:11:20.722Z,52.60
2023-04-16T22:13:47.598Z,52.54
2023-04-16T22:16:14.410Z,52.52
2023-04-16T22:18:41.201Z,52.62
2023-04-16T22:21:07.769Z,52.25
2023-04-16T22:23:34.298Z,52.24
2023-04-16T22:26:02.682Z,52.44
2023-04-16T22:28:29.278Z,52.48
2023-04-16T22:30:56.362Z,52.47
2023-04-16T22:33:22.889Z,52.36
2023-04-16T22:35:49.466Z,52.49
2023-04-16T22:38:16.551Z,52.54
2023-04-16T22:40:43.114Z,52.41
2023-04-16T22:43:09.655Z,52.21
2023-04-16T22:45:37.435Z,52.57
2023-04-16T22:48:04.234Z,52.36
2023-04-16T22:50:32.006Z,52.52
2023-04-16T22:52:58.560Z,52.31
2023-04-16T22:55:25.124Z,52.71
2023-04-16T22:57:51.693Z,51.75
2023-04-16T23:00:18.903Z,52.44
2023-04-16T23:02:45.723Z,52.25
2023-04-16T23:05:12.343Z,52.56
2023-04-16T23:07:38.913Z,52.43
2023-04-16T23:10:06.214Z,52.28
2023-04-16T23:12:32.782Z,52.33
2023-04-16T23:15:00.537Z,52.51
2023-04-16T23:17:27.295Z,52.24
2023-04-16T23:19:53.925Z,52.48
2023-04-16T23:22:20.528Z,52.54
2023-04-16T23:24:47.205Z,52.44
2023-04-16T23:27:13.700Z,52.53
2023-04-16T23:29:40.427Z,52.52
2023-04-16T23:32:07.058Z,52.21
2023-04-16T23:34:33.567Z,52.90
2023-04-16T23:37:00.221Z,52.35
2023-04-16T23:39:27.228Z,52.54
2023-04-16T23:41:53.835Z,52.90
2023-04-16T23:44:20.358Z,52.66
2023-04-16T23:46:46.946Z,52.58
2023-04-16T23:49:13.590Z,52.43
2023-04-16T23:51:40.143Z,52.31
2023-04-16T23:54:06.658Z,52.73
2023-04-16T23:56:33.171Z,52.40
2023-04-16T23:58:59.699Z,52.56
